Time;durP1;ratioP1;P1;durP2;ratioP2;P2;SDS_P1;SDS_P2;PMS_P1;PMS_P2;Temp;Humidity;BMP_temperature;BMP_pressure;BME280_temperature;BME280_humidity;BME280_pressure;Samples;Min_cycle;Max_cycle;Signal;HPM_P1;HPM_P2
2022/10/16 00:06:50;;;;;;;106.15;49.60;;;9.70;99.90;;;;;;21057143;28;20481;-52
2022/10/16 00:16:53;;;;;;;129.45;55.88;;;9.30;99.90;;;;;;21056522;28;20439;-53
2022/10/16 00:26:56;;;;;;;154.43;61.72;;;9.00;99.90;;;;;;21036165;28;20040;-48
2022/10/16 00:36:58;;;;;;;102.15;48.60;;;8.90;99.90;;;;;;21055096;28;20040;-59
2022/10/16 00:47:00;;;;;;;137.27;56.08;;;8.80;99.90;;;;;;20974060;28;20406;-48
2022/10/16 00:57:06;;;;;;;147.02;57.08;;;8.60;99.90;;;;;;20970064;28;20486;-59
2022/10/16 01:07:27;;;;;;;163.35;62.47;;;8.50;99.90;;;;;;20969120;28;20440;-59
2022/10/16 01:18:01;;;;;;;135.20;54.80;;;8.30;99.90;;;;;;20964006;28;20037;-59
2022/10/16 01:28:08;;;;;;;109.07;47.30;;;8.10;99.90;;;;;;20958708;28;20032;-51
2022/10/16 01:38:26;;;;;;;103.43;47.35;;;7.90;99.90;;;;;;20974139;28;20070;-52
2022/10/16 01:48:31;;;;;;;134.55;54.45;;;7.80;99.90;;;;;;21051492;28;20044;-53
2022/10/16 01:58:38;;;;;;;159.30;59.63;;;7.80;99.90;;;;;;21054030;28;20094;-50
2022/10/16 02:08:43;;;;;;;158.70;60.63;;;7.80;99.90;;;;;;21066663;28;20028;-57
2022/10/16 02:18:47;;;;;;;155.10;57.25;;;7.80;99.90;;;;;;21050088;28;20036;-59
2022/10/16 02:28:57;;;;;;;157.07;57.75;;;7.70;99.90;;;;;;21062737;28;20040;-56
2022/10/16 02:39:01;;;;;;;150.07;58.10;;;7.70;99.90;;;;;;21064336;28;20052;-57
2022/10/16 02:49:03;;;;;;;123.75;51.05;;;7.60;99.90;;;;;;21064150;28;20043;-52
2022/10/16 02:59:06;;;;;;;120.85;47.35;;;7.60;99.90;;;;;;21062925;28;20032;-51
2022/10/16 03:09:08;;;;;;;135.43;52.00;;;7.50;99.90;;;;;;21061964;28;20058;-48
2022/10/16 03:19:11;;;;;;;157.52;56.97;;;7.50;99.90;;;;;;21060748;28;20456;-56
2022/10/16 03:29:14;;;;;;;166.52;59.13;;;7.50;99.90;;;;;;21059983;28;20073;-50
2022/10/16 03:39:16;;;;;;;161.23;57.05;;;7.50;99.90;;;;;;21042806;28;20331;-51
2022/10/16 03:49:18;;;;;;;134.20;49.42;;;7.50;99.90;;;;;;21059971;28;20152;-53
2022/10/16 03:59:21;;;;;;;139.38;52.40;;;7.60;99.90;;;;;;20892342;28;20342;-51
2022/10/16 04:09:23;;;;;;;127.57;48.88;;;8.00;99.90;;;;;;20977621;28;20031;-53
2022/10/16 04:19:26;;;;;;;109.80;45.10;;;8.40;99.90;;;;;;21020461;28;20388;-51
2022/10/16 04:29:29;;;;;;;102.88;43.63;;;8.70;99.90;;;;;;21055572;28;20028;-52
2022/10/16 04:39:31;;;;;;;103.05;44.65;;;8.90;99.90;;;;;;21054949;28;20445;-50
2022/10/16 04:49:34;;;;;;;89.18;41.08;;;9.10;99.90;;;;;;21054082;28;20040;-59
2022/10/16 04:59:36;;;;;;;80.47;36.63;;;9.20;99.90;;;;;;21053727;28;20036;-51
2022/10/16 05:09:39;;;;;;;63.28;31.13;;;9.20;99.90;;;;;;21052912;28;20389;-52
2022/10/16 05:19:41;;;;;;;63.13;29.52;;;9.20;99.90;;;;;;20977120;28;20070;-52
2022/10/16 05:29:46;;;;;;;53.25;28.30;;;9.30;99.90;;;;;;21052796;28;20070;-52
2022/10/16 05:39:49;;;;;;;56.13;26.55;;;9.30;99.90;;;;;;21046081;28;20567;-52
2022/10/16 05:49:51;;;;;;;50.15;23.83;;;9.30;99.90;;;;;;20985136;28;20114;-52
2022/10/16 05:59:54;;;;;;;46.88;23.25;;;9.30;99.90;;;;;;20984104;28;20037;-52
2022/10/16 06:09:56;;;;;;;39.05;22.10;;;9.40;99.90;;;;;;20983065;28;20040;-52
2022/10/16 06:19:59;;;;;;;43.20;22.60;;;9.60;99.90;;;;;;20962474;28;20514;-53
2022/10/16 06:30:03;;;;;;;61.03;28.00;;;9.50;99.90;;;;;;20964321;28;20099;-52
2022/10/16 06:40:06;;;;;;;64.35;31.77;;;9.50;99.90;;;;;;21002451;28;20056;-50
2022/10/16 06:50:09;;;;;;;61.70;29.80;;;9.30;99.90;;;;;;21063052;28;20094;-52
2022/10/16 07:00:11;;;;;;;54.67;29.60;;;9.40;99.90;;;;;;21063028;28;20546;-57
2022/10/16 07:10:15;;;;;;;52.97;29.42;;;10.00;99.90;;;;;;21061930;28;20200;-50
2022/10/16 07:20:17;;;;;;;55.33;32.72;;;10.80;99.90;;;;;;21041020;28;20040;-51
2022/10/16 07:30:20;;;;;;;51.28;31.42;;;11.70;99.90;;;;;;21060767;28;20089;-51
2022/10/16 07:40:23;;;;;;;47.72;30.27;;;12.70;99.90;;;;;;21042421;28;20036;-49
2022/10/16 07:50:25;;;;;;;52.97;32.92;;;14.00;99.90;;;;;;21058489;28;20444;-50
2022/10/16 08:00:28;;;;;;;52.75;34.97;;;14.70;99.90;;;;;;21058087;28;20040;-51
2022/10/16 08:10:31;;;;;;;58.17;36.92;;;15.00;99.90;;;;;;21058131;28;20040;-61
2022/10/16 08:20:34;;;;;;;55.15;36.85;;;15.00;99.90;;;;;;21019665;28;20028;-50
2022/10/16 08:30:38;;;;;;;57.78;37.63;;;15.20;99.90;;;;;;21055312;28;20032;-52
2022/10/16 08:40:42;;;;;;;58.30;37.58;;;15.80;99.90;;;;;;21054862;28;20401;-59
2022/10/16 08:50:47;;;;;;;56.15;37.45;;;16.10;99.90;;;;;;21053601;28;20412;-51
2022/10/16 09:00:54;;;;;;;63.05;40.00;;;15.80;99.90;;;;;;21053003;28;20032;-52
2022/10/16 09:11:30;;;;;;;56.40;36.25;;;15.50;99.90;;;;;;21036446;28;20044;-54
2022/10/16 09:21:52;;;;;;;60.38;37.10;;;15.10;99.90;;;;;;20613518;28;20046;-52
2022/10/16 09:31:57;;;;;;;50.65;32.78;;;15.00;99.90;;;;;;20632678;28;20578;-60
2022/10/16 09:42:00;;;;;;;38.35;27.27;;;15.40;99.90;;;;;;20647416;28;20097;-61
2022/10/16 09:52:13;;;;;;;49.88;33.05;;;15.70;99.90;;;;;;20732246;28;20052;-50
2022/10/16 10:02:17;;;;;;;40.75;27.13;;;16.00;99.90;;;;;;20967427;28;20032;-51
2022/10/16 10:12:32;;;;;;;46.53;31.70;;;16.60;99.90;;;;;;20967709;28;20055;-52
2022/10/16 10:22:45;;;;;;;42.60;29.88;;;16.90;99.90;;;;;;20955218;28;20067;-60
2022/10/16 10:33:19;;;;;;;41.83;29.25;;;17.00;99.90;;;;;;20981281;28;20462;-55
2022/10/16 10:43:46;;;;;;;54.20;35.67;;;17.20;99.90;;;;;;21030064;28;20070;-53
2022/10/16 10:54:31;;;;;;;53.00;36.13;;;17.10;99.90;;;;;;21063376;28;20078;-61
2022/10/16 11:04:52;;;;;;;59.05;37.00;;;17.20;99.90;;;;;;21062858;28;20032;-60
2022/10/16 11:15:19;;;;;;;56.20;36.92;;;16.90;99.90;;;;;;21063218;28;20089;-51
2022/10/16 11:25:31;;;;;;;63.85;41.80;;;16.20;99.90;;;;;;21041977;28;20040;-53
2022/10/16 11:35:53;;;;;;;65.38;41.17;;;15.70;99.90;;;;;;21058511;28;20085;-51
2022/10/16 11:46:01;;;;;;;69.60;44.35;;;15.60;99.90;;;;;;20988192;28;20032;-53
2022/10/16 11:56:05;;;;;;;67.75;42.35;;;15.30;99.90;;;;;;20974538;28;20032;-50
2022/10/16 12:06:49;;;;;;;68.70;44.13;;;15.00;99.90;;;;;;20973636;28;20036;-53
2022/10/16 12:16:55;;;;;;;67.43;43.85;;;14.80;99.90;;;;;;20973502;28;20033;-51
2022/10/16 12:26:58;;;;;;;71.18;43.17;;;14.80;99.90;;;;;;20918192;28;20082;-60
2022/10/16 12:37:20;;;;;;;75.25;46.00;;;15.00;99.90;;;;;;20969627;28;20478;-60
2022/10/16 12:47:37;;;;;;;63.50;39.72;;;15.10;99.90;;;;;;21053681;28;20121;-51
2022/10/16 12:58:17;;;;;;;69.82;44.92;;;15.20;99.90;;;;;;21053589;28;20032;-52
2022/10/16 13:08:29;;;;;;;78.00;47.00;;;15.10;99.90;;;;;;21052604;28;20336;-61
2022/10/16 13:18:44;;;;;;;62.35;39.55;;;14.80;99.90;;;;;;21038973;28;20382;-60
2022/10/16 13:28:46;;;;;;;83.28;50.72;;;14.70;99.90;;;;;;21047515;28;20105;-61
2022/10/16 13:39:00;;;;;;;77.97;46.47;;;14.70;99.90;;;;;;21051368;28;20036;-61
2022/10/16 13:49:14;;;;;;;81.22;48.22;;;14.50;99.90;;;;;;21051526;28;20040;-53
2022/10/16 13:59:26;;;;;;;87.07;49.97;;;14.20;99.90;;;;;;21062914;28;20089;-50
2022/10/16 14:09:31;;;;;;;78.53;47.70;;;13.90;99.90;;;;;;21067229;28;20066;-53
2022/10/16 14:19:34;;;;;;;76.65;46.05;;;13.80;99.90;;;;;;21046105;28;20028;-53
2022/10/16 14:29:40;;;;;;;71.20;43.13;;;13.90;99.90;;;;;;21032994;28;20028;-53
2022/10/16 14:39:53;;;;;;;72.75;44.95;;;13.90;99.90;;;;;;21064611;28;20048;-60
2022/10/16 14:49:58;;;;;;;87.00;51.22;;;13.80;99.90;;;;;;21063699;28;20099;-52
2022/10/16 15:00:06;;;;;;;79.50;47.78;;;13.70;99.90;;;;;;20935975;28;20549;-51
2022/10/16 15:10:09;;;;;;;97.78;53.85;;;13.40;99.90;;;;;;21010151;28;20036;-61
2022/10/16 15:20:12;;;;;;;93.95;53.85;;;13.20;99.90;;;;;;21031558;28;20550;-59
2022/10/16 15:30:14;;;;;;;86.70;49.55;;;13.00;99.90;;;;;;21046336;28;20032;-59
2022/10/16 15:40:19;;;;;;;100.05;57.05;;;12.90;99.90;;;;;;21059485;28;20044;-60
2022/10/16 15:50:22;;;;;;;94.82;52.28;;;12.80;99.90;;;;;;21059320;28;20040;-51
2022/10/16 16:00:25;;;;;;;90.65;51.35;;;12.80;99.90;;;;;;21042401;28;20097;-53
2022/10/16 16:10:28;;;;;;;96.00;53.72;;;12.80;99.90;;;;;;21057461;28;20435;-60
2022/10/16 16:20:31;;;;;;;93.55;51.72;;;12.70;99.90;;;;;;21036170;28;20392;-50
2022/10/16 16:30:33;;;;;;;97.10;51.60;;;12.70;99.90;;;;;;20956308;28;20087;-60
2022/10/16 16:40:36;;;;;;;109.90;55.45;;;12.50;99.90;;;;;;21010988;28;20501;-53
2022/10/16 16:50:39;;;;;;;76.95;41.92;;;12.20;99.90;;;;;;20995932;28;20562;-52
2022/10/16 17:00:47;;;;;;;82.53;42.97;;;11.60;99.90;;;;;;21054436;28;20032;-51
2022/10/16 17:10:54;;;;;;;81.53;42.47;;;10.80;99.90;;;;;;21068526;28;20032;-52
2022/10/16 17:21:02;;;;;;;93.05;45.22;;;10.00;99.90;;;;;;21032942;28;20032;-50
2022/10/16 17:31:14;;;;;;;109.25;48.25;;;9.50;99.90;;;;;;21052627;28;20093;-56
2022/10/16 17:41:20;;;;;;;107.00;47.47;;;9.20;99.90;;;;;;21051779;28;20497;-52
2022/10/16 17:51:26;;;;;;;93.53;42.70;;;9.00;99.90;;;;;;21051686;28;20032;-51
2022/10/16 18:01:36;;;;;;;76.07;37.28;;;8.80;99.90;;;;;;20893249;28;20036;-58
2022/10/16 18:11:39;;;;;;;80.47;38.33;;;8.80;99.90;;;;;;20851142;28;20116;-52
2022/10/16 18:21:42;;;;;;;85.35;40.92;;;9.00;99.90;;;;;;20793236;28;20045;-57
2022/10/16 18:31:44;;;;;;;91.80;43.33;;;9.10;99.90;;;;;;20776836;28;20049;-51
2022/10/16 18:41:48;;;;;;;107.13;45.25;;;9.10;99.90;;;;;;20888000;28;20102;-51
2022/10/16 18:51:55;;;;;;;102.85;46.13;;;8.90;99.90;;;;;;21002031;28;20044;-50
2022/10/16 19:01:59;;;;;;;121.65;51.33;;;8.80;99.90;;;;;;21063604;28;20039;-52
2022/10/16 19:12:01;;;;;;;117.68;51.17;;;8.70;99.90;;;;;;21062314;28;20036;-48
2022/10/16 19:22:13;;;;;;;121.90;50.85;;;8.70;99.90;;;;;;21041860;28;20032;-51
2022/10/16 19:32:15;;;;;;;;;;;8.60;99.90;;;;;;21061517;28;20550;-56
2022/10/16 19:42:18;;;;;;;137.63;55.50;;;8.40;99.90;;;;;;21059614;28;19915;-49
2022/10/16 19:52:21;;;;;;;124.45;50.90;;;8.40;99.90;;;;;;21057943;28;20383;-51
2022/10/16 20:02:24;;;;;;;128.70;53.08;;;8.40;99.90;;;;;;21058902;28;20044;-59
2022/10/16 20:12:32;;;;;;;125.22;48.80;;;8.40;99.90;;;;;;21074594;28;20039;-50
2022/10/16 20:22:34;;;;;;;123.35;49.42;;;8.30;99.90;;;;;;21037087;28;20036;-58
2022/10/16 20:32:38;;;;;;;97.28;43.88;;;8.30;99.90;;;;;;21056419;28;20105;-53
2022/10/16 20:42:41;;;;;;;81.97;37.88;;;8.30;99.90;;;;;;21053296;28;20048;-52
2022/10/16 20:52:44;;;;;;;62.10;32.00;;;8.40;99.90;;;;;;21054284;28;20569;-49
2022/10/16 21:02:50;;;;;;;65.00;33.60;;;8.40;99.90;;;;;;21053945;28;20098;-51
2022/10/16 21:12:54;;;;;;;64.32;33.33;;;8.50;99.90;;;;;;21054351;28;20058;-51
2022/10/16 21:22:56;;;;;;;98.57;42.85;;;8.10;99.90;;;;;;21032597;28;20040;-58
2022/10/16 21:32:59;;;;;;;91.50;38.63;;;8.10;99.90;;;;;;21052332;28;20032;-50
2022/10/16 21:43:03;;;;;;;108.82;46.58;;;8.00;99.90;;;;;;21051414;28;20117;-50
2022/10/16 21:53:06;;;;;;;126.38;49.35;;;8.00;99.90;;;;;;21051077;28;20086;-50
2022/10/16 22:03:08;;;;;;;158.02;58.25;;;7.80;99.90;;;;;;21051341;28;20032;-53
2022/10/16 22:13:11;;;;;;;144.88;53.85;;;8.10;99.90;;;;;;21050562;28;20089;-48
2022/10/16 22:23:14;;;;;;;135.50;52.30;;;8.10;99.90;;;;;;21045679;28;20040;-52
2022/10/16 22:33:17;;;;;;;138.80;52.72;;;7.90;99.90;;;;;;21065854;28;20058;-59
2022/10/16 22:43:19;;;;;;;105.85;45.13;;;7.90;99.90;;;;;;21064499;28;20048;-59
2022/10/16 22:53:21;;;;;;;111.32;46.20;;;7.70;99.90;;;;;;21063815;28;20085;-51
2022/10/16 23:03:24;;;;;;;112.18;46.15;;;7.70;99.90;;;;;;21063551;28;20032;-52
2022/10/16 23:13:28;;;;;;;93.32;41.60;;;7.80;99.90;;;;;;21062318;28;20044;-52
2022/10/16 23:23:30;;;;;;;69.95;33.50;;;7.80;99.90;;;;;;21041700;28;20323;-57
2022/10/16 23:33:35;;;;;;;83.82;37.53;;;7.80;99.90;;;;;;21044278;28;20040;-52
2022/10/16 23:43:37;;;;;;;88.43;39.70;;;7.70;99.90;;;;;;21059770;28;20056;-51
2022/10/16 23:53:40;;;;;;;108.25;45.88;;;7.50;99.90;;;;;;21043667;28;20044;-55
